This is the latest recevied weather packets stored in our database for station/object KD5UIG. If no packets are shown the sender has not sent any weather packets the latest 10 day(s).
| Time | Temp. | Humidity | Pressure | Rain* | Wind** | Luminosity | Snow |
|---|---|---|---|---|---|---|---|
| 1777924554 | 28.89° C | 53% | 1008.5 hPa | 0 mm | - | 809 W/m² | - |
| 1777923655 | 28.89° C | 52% | 1008.6 hPa | 0 mm | - | 826 W/m² | - |
| 1777923053 | 28.89° C | 53% | 1008.7 hPa | 0 mm | - | 786 W/m² | - |
| 1777920956 | 27.78° C | 56% | 1009.3 hPa | 0 mm | - | 942 W/m² | - |
| 1777920660 | 27.78° C | 53% | 1009.4 hPa | 0 mm | - | 691 W/m² | - |
| 1777920365 | 27.78° C | 56% | 1009.4 hPa | 0 mm | - | 872 W/m² | - |
| 1777919754 | 27.22° C | 55% | 1009.6 hPa | 0 mm | - | 937 W/m² | - |
| 1777919460 | 27.22° C | 56% | 1009.7 hPa | 0 mm | - | 856 W/m² | - |
| 1777917659 | 26.67° C | 55% | 1010.3 hPa | 0 mm | - | 947 W/m² | - |
| 1777916155 | 26.11° C | 56% | 1010.6 hPa | 0 mm | - | 858 W/m² | - |
| 1777913754 | 25.56° C | 57% | 1011.3 hPa | 0 mm | - | 731 W/m² | - |
| 1777911654 | 24.44° C | 59% | 1011.9 hPa | 0 mm | - | 684 W/m² | - |
| 1777910755 | 24.44° C | 59% | 1011.9 hPa | 0 mm | - | 642 W/m² | - |
| 1777910461 | 23.89° C | 58% | 1011.7 hPa | 0 mm | - | 631 W/m² | - |
| 1777909855 | 23.89° C | 58% | 1011.8 hPa | 0 mm | - | 599 W/m² | - |
| 1777909582 | 23.89° C | 58% | 1011.9 hPa | 0 mm | - | 624 W/m² | - |
| 1777909255 | 23.89° C | 59% | 1011.9 hPa | 0 mm | - | 577 W/m² | - |
| 1777908354 | 23.33° C | 61% | 1011.9 hPa | 0 mm | - | 613 W/m² | - |
| 1777908055 | 23.33° C | 61% | 1011.9 hPa | 0 mm | - | 622 W/m² | - |
| 1777904157 | 20.56° C | 67% | 1012.4 hPa | 0 mm | - | 396 W/m² | - |
| 1777902368 | 19.44° C | 70% | 1012.5 hPa | 0 mm | - | 348 W/m² | - |
| 1777901756 | 18.89° C | 71% | 1012.4 hPa | 0 mm | - | 229 W/m² | - |
| 1777897854 | 16.67° C | 71% | 1012.2 hPa | 0 mm | - | 63 W/m² | - |
| 1777893365 | 16.11° C | 74% | 1012.1 hPa | 0 mm | - | 0 W/m² | - |
| 1777893057 | 16.67° C | 73% | 1012.1 hPa | 0 mm | - | 0 W/m² | - |
* Rain latest hour (hover to see other rain measurements)
** Current wind speed in m/s (hover to see current wind gust speed)